createdAt,value
2017-10-01T00:02:18.378Z,12.50
2017-10-01T00:04:46.558Z,18.60
2017-10-01T00:07:14.746Z,16.07
2017-10-01T00:09:42.141Z,19.77
2017-10-01T00:12:10.323Z,17.13
2017-10-01T00:14:37.733Z,16.17
2017-10-01T00:17:05.159Z,13.90
2017-10-01T00:19:32.571Z,21.07
2017-10-01T00:21:59.997Z,18.57
2017-10-01T00:24:27.410Z,17.03
2017-10-01T00:26:54.838Z,16.30
2017-10-01T00:29:22.250Z,16.80
2017-10-01T00:31:50.435Z,18.00
2017-10-01T00:34:17.849Z,19.70
2017-10-01T00:36:45.271Z,13.80
2017-10-01T00:39:12.693Z,17.90
2017-10-01T00:41:40.878Z,19.97
2017-10-01T00:44:08.288Z,17.87
2017-10-01T00:46:35.706Z,19.57
2017-10-01T00:49:03.118Z,18.77
2017-10-01T00:51:30.529Z,19.63
2017-10-01T00:53:57.949Z,17.87
2017-10-01T00:56:26.130Z,18.87
2017-10-01T00:58:54.317Z,16.90
2017-10-01T01:01:21.726Z,20.93
2017-10-01T01:03:49.154Z,21.50
2017-10-01T01:06:16.584Z,16.80
2017-10-01T01:08:44.003Z,18.00
2017-10-01T01:11:11.404Z,27.30
2017-10-01T01:13:38.826Z,20.27
2017-10-01T01:16:07.002Z,19.63
2017-10-01T01:18:35.196Z,23.80
2017-10-01T01:21:02.617Z,16.00
2017-10-01T01:23:30.050Z,17.97
2017-10-01T01:25:57.457Z,21.07
2017-10-01T01:28:25.634Z,24.23
2017-10-01T01:30:53.059Z,22.97
2017-10-01T01:33:20.474Z,21.77
2017-10-01T01:35:47.903Z,18.70
2017-10-01T01:38:15.306Z,20.57
2017-10-01T01:40:42.739Z,19.57
2017-10-01T01:43:10.198Z,22.20
2017-10-01T01:45:37.606Z,27.07
2017-10-01T01:48:05.013Z,24.97
2017-10-01T01:50:32.447Z,22.87
2017-10-01T01:52:59.854Z,19.47
2017-10-01T01:55:27.289Z,21.97
2017-10-01T01:57:55.470Z,21.83
2017-10-01T02:00:22.911Z,20.33
2017-10-01T02:02:50.332Z,21.67
2017-10-01T02:05:18.511Z,23.83
2017-10-01T02:07:45.930Z,23.93
2017-10-01T02:10:13.350Z,17.37
2017-10-01T02:12:40.807Z,16.33
2017-10-01T02:15:08.219Z,16.13
2017-10-01T02:17:35.634Z,25.53
2017-10-01T02:20:03.050Z,19.00
2017-10-01T02:22:30.469Z,22.40
2017-10-01T02:24:58.469Z,23.83
2017-10-01T02:27:26.653Z,23.37
2017-10-01T02:29:54.061Z,22.00
2017-10-01T02:32:21.484Z,20.97
2017-10-01T02:34:48.897Z,20.10
2017-10-01T02:37:17.094Z,25.67
2017-10-01T02:39:44.509Z,22.97
2017-10-01T02:42:11.929Z,23.87
2017-10-01T02:44:39.347Z,23.60
2017-10-01T02:47:07.530Z,27.43
2017-10-01T02:49:35.701Z,23.53
2017-10-01T02:52:03.123Z,25.43
2017-10-01T02:54:30.533Z,23.47
2017-10-01T02:56:57.947Z,28.97
2017-10-01T02:59:25.367Z,28.10
2017-10-01T03:01:53.602Z,31.87
2017-10-01T03:04:21.789Z,28.70
2017-10-01T03:06:49.207Z,32.90
2017-10-01T03:09:16.618Z,33.43
2017-10-01T03:11:44.029Z,32.93
2017-10-01T03:14:12.226Z,33.20
2017-10-01T03:16:39.640Z,30.40
2017-10-01T03:19:07.065Z,25.87
2017-10-01T03:21:34.477Z,24.00
2017-10-01T03:24:02.667Z,31.17
2017-10-01T03:26:30.073Z,29.30
2017-10-01T03:28:57.490Z,26.80
2017-10-01T03:31:24.906Z,23.33
2017-10-01T03:33:52.418Z,24.70
2017-10-01T03:36:20.619Z,22.33
2017-10-01T03:38:49.534Z,27.40
2017-10-01T03:41:17.718Z,26.80
2017-10-01T03:43:45.900Z,25.73
2017-10-01T03:46:14.086Z,23.27
2017-10-01T03:48:41.503Z,22.07
2017-10-01T03:51:08.926Z,29.10
2017-10-01T03:53:36.337Z,32.33
2017-10-01T03:56:04.518Z,29.20
2017-10-01T03:58:31.933Z,30.00
2017-10-01T04:00:59.361Z,27.97
2017-10-01T04:03:26.774Z,31.70
2017-10-01T04:05:54.953Z,20.53
2017-10-01T04:08:23.146Z,25.83
2017-10-01T04:10:50.568Z,29.33
2017-10-01T04:13:17.987Z,34.47
2017-10-01T04:15:45.415Z,33.63
2017-10-01T04:18:12.830Z,37.47
2017-10-01T04:20:40.244Z,35.33
2017-10-01T04:23:07.797Z,32.90
2017-10-01T04:25:35.190Z,36.73
2017-10-01T04:28:02.608Z,32.37
2017-10-01T04:30:30.030Z,36.97
2017-10-01T04:32:58.223Z,34.13
2017-10-01T04:35:25.637Z,34.30
2017-10-01T04:37:53.058Z,28.67
2017-10-01T04:40:20.466Z,40.00
2017-10-01T04:42:48.658Z,38.53
2017-10-01T04:45:16.833Z,38.93
2017-10-01T04:47:44.250Z,34.33
2017-10-01T04:50:11.671Z,32.00
2017-10-01T04:52:39.087Z,29.73
2017-10-01T04:55:07.277Z,33.80
2017-10-01T04:57:34.694Z,35.87
2017-10-01T05:00:02.121Z,38.83
2017-10-01T05:02:29.538Z,40.13
2017-10-01T05:04:57.722Z,33.50
2017-10-01T05:07:25.152Z,31.17
2017-10-01T05:09:52.566Z,39.20
2017-10-01T05:12:19.995Z,30.37
2017-10-01T05:14:47.395Z,27.80
2017-10-01T05:17:14.819Z,27.00
2017-10-01T05:19:42.230Z,30.53
2017-10-01T05:22:09.654Z,30.03
2017-10-01T05:24:37.068Z,24.80
2017-10-01T05:27:04.486Z,24.83
2017-10-01T05:29:31.903Z,23.60
2017-10-01T05:31:59.322Z,22.63
2017-10-01T05:34:27.502Z,21.47
2017-10-01T05:36:55.690Z,22.77
2017-10-01T05:39:23.093Z,24.47
2017-10-01T05:41:50.518Z,26.43
2017-10-01T05:44:17.930Z,23.37
2017-10-01T05:46:46.114Z,25.60
2017-10-01T05:49:14.293Z,26.27
2017-10-01T05:51:42.473Z,29.17
2017-10-01T05:54:09.886Z,31.30
2017-10-01T05:56:37.342Z,24.80
2017-10-01T05:59:05.431Z,28.33
2017-10-01T06:01:32.858Z,24.90
2017-10-01T06:04:01.048Z,20.27
2017-10-01T06:06:28.458Z,21.20
2017-10-01T06:08:56.778Z,33.67
2017-10-01T06:11:24.198Z,29.57
2017-10-01T06:13:51.613Z,27.40
2017-10-01T06:16:19.807Z,29.33
2017-10-01T06:18:47.989Z,56.70
2017-10-01T06:21:15.413Z,91.17
2017-10-01T06:23:42.830Z,95.67
2017-10-01T06:26:10.245Z,98.23
2017-10-01T06:28:37.683Z,137.43
2017-10-01T06:31:05.082Z,81.37
2017-10-01T06:33:32.514Z,203.93
2017-10-01T06:35:59.926Z,149.90
2017-10-01T06:38:27.349Z,274.37
2017-10-01T06:40:54.761Z,234.90
2017-10-01T06:43:22.954Z,151.93
2017-10-01T06:45:50.382Z,184.90
2017-10-01T06:48:17.802Z,216.43
2017-10-01T06:50:45.263Z,146.60
2017-10-01T06:53:12.698Z,153.53
2017-10-01T06:55:40.113Z,230.57
2017-10-01T06:58:07.527Z,263.20
2017-10-01T07:00:34.949Z,162.53
2017-10-01T07:03:02.365Z,171.57
2017-10-01T07:05:29.790Z,249.63
2017-10-01T07:07:57.210Z,266.30
2017-10-01T07:10:25.401Z,404.37
2017-10-01T07:12:52.827Z,331.07
2017-10-01T07:15:20.259Z,419.43
2017-10-01T07:17:47.678Z,203.93
2017-10-01T07:20:15.106Z,177.60
2017-10-01T07:22:43.302Z,351.27
2017-10-01T07:25:11.086Z,368.77
2017-10-01T07:27:38.498Z,36.17
2017-10-01T07:30:06.687Z,22.53
2017-10-01T07:32:34.106Z,55.67
2017-10-01T07:35:01.527Z,34.53
2017-10-01T07:37:28.946Z,28.93
2017-10-01T07:39:57.131Z,59.90
2017-10-01T07:42:25.318Z,30.87
2017-10-01T07:44:52.734Z,35.23
2017-10-01T07:47:20.162Z,19.33
2017-10-01T07:49:47.582Z,12.87
2017-10-01T07:52:15.001Z,19.07
2017-10-01T07:54:42.410Z,31.07
2017-10-01T07:57:09.833Z,14.83
2017-10-01T07:59:38.024Z,32.70
2017-10-01T08:02:05.441Z,22.90
2017-10-01T08:04:32.865Z,15.47
2017-10-01T08:07:00.282Z,20.17
2017-10-01T08:09:27.711Z,16.70
2017-10-01T08:11:55.126Z,26.40
2017-10-01T08:14:22.548Z,21.93
2017-10-01T08:16:50.738Z,18.80
2017-10-01T08:19:18.151Z,16.27
2017-10-01T08:21:45.574Z,15.80
2017-10-01T08:24:12.992Z,22.53
2017-10-01T08:26:40.413Z,15.40
2017-10-01T08:29:07.828Z,15.37
2017-10-01T08:31:35.262Z,17.73
2017-10-01T08:34:02.681Z,16.60
2017-10-01T08:36:30.117Z,17.00
2017-10-01T08:38:57.534Z,15.00
2017-10-01T08:41:24.962Z,16.20
2017-10-01T08:43:52.411Z,14.87
2017-10-01T08:46:19.823Z,15.47
2017-10-01T08:48:47.241Z,12.63
2017-10-01T08:51:15.429Z,12.30
2017-10-01T08:53:42.858Z,13.47
2017-10-01T08:56:10.274Z,16.13
2017-10-01T08:58:37.703Z,10.70
2017-10-01T09:01:05.113Z,11.57
2017-10-01T09:03:32.528Z,9.43
2017-10-01T09:05:59.931Z,10.03
2017-10-01T09:08:27.351Z,10.77
2017-10-01T09:10:54.767Z,10.03
2017-10-01T09:13:22.953Z,10.60
2017-10-01T09:15:50.370Z,10.90
2017-10-01T09:18:17.793Z,15.80
2017-10-01T09:20:45.206Z,9.90
2017-10-01T09:23:13.402Z,11.13
2017-10-01T09:25:40.807Z,10.80
2017-10-01T09:28:08.234Z,11.57
2017-10-01T09:30:35.669Z,11.93
2017-10-01T09:33:03.186Z,11.80
2017-10-01T09:35:30.728Z,11.07
2017-10-01T09:37:58.132Z,11.80
2017-10-01T09:40:26.309Z,10.70
2017-10-01T09:42:53.721Z,9.60
2017-10-01T09:45:21.144Z,10.33
2017-10-01T09:47:48.567Z,12.23
2017-10-01T09:50:16.755Z,10.83
2017-10-01T09:52:44.173Z,8.03
2017-10-01T09:55:11.590Z,8.30
2017-10-01T09:57:39.008Z,7.50
2017-10-01T10:00:07.194Z,7.00
2017-10-01T10:02:34.614Z,7.37
2017-10-01T10:05:02.036Z,10.73
2017-10-01T10:07:29.472Z,5.80
2017-10-01T10:09:56.893Z,6.07
2017-10-01T10:12:24.296Z,10.70
2017-10-01T10:14:51.714Z,6.87
2017-10-01T10:17:19.899Z,8.20
2017-10-01T10:19:48.081Z,8.00
2017-10-01T10:22:15.506Z,11.23
2017-10-01T10:24:42.922Z,6.90
2017-10-01T10:27:10.339Z,8.33
2017-10-01T10:29:38.521Z,8.80
2017-10-01T10:32:05.930Z,8.33
2017-10-01T10:34:33.355Z,10.77
2017-10-01T10:37:00.766Z,7.97
2017-10-01T10:39:28.185Z,10.17
2017-10-01T10:41:55.615Z,11.13
2017-10-01T10:44:23.030Z,8.70
2017-10-01T10:46:50.446Z,10.63
2017-10-01T10:49:17.858Z,9.43
2017-10-01T10:51:46.036Z,9.60
2017-10-01T10:54:14.231Z,10.70
2017-10-01T10:56:41.656Z,10.07
2017-10-01T10:59:09.838Z,8.10
2017-10-01T11:01:38.018Z,10.10
2017-10-01T11:04:06.203Z,10.23
2017-10-01T11:06:33.621Z,26.63
2017-10-01T11:09:01.042Z,10.63
2017-10-01T11:11:28.458Z,12.57
2017-10-01T11:13:56.633Z,8.73
2017-10-01T11:16:24.046Z,6.00
2017-10-01T11:18:51.471Z,7.70
2017-10-01T11:21:19.257Z,7.30
2017-10-01T11:23:46.665Z,4.20
2017-10-01T11:26:14.079Z,3.90
2017-10-01T11:28:41.536Z,6.00
2017-10-01T11:31:09.062Z,5.57
2017-10-01T11:33:36.520Z,3.87
2017-10-01T11:36:03.967Z,3.87
2017-10-01T11:38:31.357Z,2.77
2017-10-01T11:40:58.877Z,2.40
2017-10-01T11:43:26.282Z,3.70
2017-10-01T11:45:53.706Z,3.53
2017-10-01T11:48:21.158Z,5.27
2017-10-01T11:50:48.616Z,4.03
2017-10-01T11:53:16.030Z,8.10
2017-10-01T11:55:44.213Z,2.73
2017-10-01T11:58:12.389Z,2.80
2017-10-01T12:00:40.569Z,4.37
2017-10-01T12:03:08.050Z,5.87
2017-10-01T12:05:35.458Z,2.10
2017-10-01T12:08:02.965Z,4.93
2017-10-01T12:10:30.417Z,3.73
2017-10-01T12:12:57.878Z,3.70
2017-10-01T12:15:25.298Z,2.93
2017-10-01T12:17:53.482Z,4.90
2017-10-01T12:20:21.794Z,5.40
2017-10-01T12:22:49.195Z,5.67
2017-10-01T12:25:16.609Z,3.70
2017-10-01T12:27:44.054Z,3.43
2017-10-01T12:30:11.470Z,6.63
2017-10-01T12:32:39.649Z,3.37
2017-10-01T12:35:07.962Z,4.60
2017-10-01T12:37:35.366Z,4.13
2017-10-01T12:40:02.848Z,7.20
2017-10-01T12:42:31.030Z,3.77
2017-10-01T12:44:58.433Z,4.90
2017-10-01T12:47:25.953Z,2.77
2017-10-01T12:49:53.363Z,3.57
2017-10-01T12:52:20.876Z,3.23
2017-10-01T12:54:48.291Z,3.57
2017-10-01T12:57:15.698Z,3.43
2017-10-01T12:59:43.109Z,5.37
2017-10-01T13:02:11.296Z,3.87
2017-10-01T13:04:39.496Z,6.03
2017-10-01T13:07:06.913Z,3.10
2017-10-01T13:09:34.338Z,2.93
2017-10-01T13:12:01.863Z,2.83
2017-10-01T13:14:29.278Z,3.60
2017-10-01T13:16:57.498Z,5.60
2017-10-01T13:19:24.950Z,3.30
2017-10-01T13:21:52.397Z,3.73
2017-10-01T13:24:19.864Z,4.60
2017-10-01T13:26:47.278Z,4.47
2017-10-01T13:29:15.458Z,2.67
2017-10-01T13:31:43.642Z,3.90
2017-10-01T13:34:11.066Z,4.77
2017-10-01T13:36:38.479Z,2.10
2017-10-01T13:39:05.905Z,2.70
2017-10-01T13:41:33.305Z,2.90
2017-10-01T13:44:00.737Z,3.07
2017-10-01T13:46:28.153Z,2.00
2017-10-01T13:48:55.663Z,3.30
2017-10-01T13:51:23.123Z,2.83
2017-10-01T13:53:50.547Z,2.60
2017-10-01T13:56:18.721Z,2.20
2017-10-01T13:58:46.913Z,1.70
2017-10-01T14:01:14.378Z,2.93
2017-10-01T14:03:41.798Z,2.07
2017-10-01T14:06:11.807Z,3.23
2017-10-01T14:08:39.233Z,5.83
2017-10-01T14:11:06.666Z,2.80
2017-10-01T14:13:34.082Z,4.73
2017-10-01T14:16:02.289Z,2.47
2017-10-01T14:18:29.759Z,3.30
2017-10-01T14:20:57.137Z,4.33
2017-10-01T14:23:24.566Z,2.13
2017-10-01T14:25:51.974Z,3.90
2017-10-01T14:28:19.734Z,3.20
2017-10-01T14:30:52.794Z,3.30
2017-10-01T14:33:20.214Z,2.03
2017-10-01T14:35:47.687Z,3.93
2017-10-01T14:38:15.146Z,1.53
2017-10-01T14:40:42.609Z,1.93
2017-10-01T14:43:10.054Z,1.73
2017-10-01T14:45:37.465Z,4.70
2017-10-01T14:48:04.962Z,4.13
2017-10-01T14:50:32.429Z,4.53
2017-10-01T14:52:59.842Z,2.30
2017-10-01T14:55:27.252Z,3.70
2017-10-01T14:57:54.701Z,2.50
2017-10-01T15:00:22.110Z,3.53
2017-10-01T15:02:49.597Z,4.80
2017-10-01T15:05:17.068Z,5.17
2017-10-01T15:07:44.529Z,2.37
2017-10-01T15:10:11.992Z,2.17
2017-10-01T15:12:39.402Z,2.90
2017-10-01T15:15:07.609Z,3.80
2017-10-01T15:17:35.074Z,5.07
2017-10-01T15:20:02.504Z,3.67
2017-10-01T15:22:30.672Z,2.67
2017-10-01T15:24:58.853Z,5.47
2017-10-01T15:27:26.342Z,4.17
2017-10-01T15:29:53.741Z,3.10
2017-10-01T15:32:21.813Z,5.97
2017-10-01T15:34:50.007Z,7.07
2017-10-01T15:37:18.181Z,4.50
2017-10-01T15:39:45.669Z,7.37
2017-10-01T15:42:13.622Z,4.67
2017-10-01T15:44:41.037Z,3.70
2017-10-01T15:47:08.450Z,7.13
2017-10-01T15:49:35.907Z,3.70
2017-10-01T15:52:03.310Z,5.60
2017-10-01T15:54:30.730Z,8.47
2017-10-01T15:56:58.137Z,4.37
2017-10-01T15:59:26.344Z,5.10
2017-10-01T16:01:53.810Z,9.07
2017-10-01T16:04:21.218Z,7.33
2017-10-01T16:06:48.719Z,5.13
2017-10-01T16:09:16.172Z,6.07
2017-10-01T16:11:43.586Z,4.50
2017-10-01T16:14:11.075Z,5.43
2017-10-01T16:16:38.533Z,3.57
2017-10-01T16:19:05.950Z,4.93
2017-10-01T16:21:34.169Z,6.90
2017-10-01T16:24:01.585Z,5.23
2017-10-01T16:26:29.776Z,4.97
2017-10-01T16:28:57.965Z,4.80
2017-10-01T16:31:25.434Z,17.90
2017-10-01T16:33:53.597Z,5.80
2017-10-01T16:36:21.060Z,5.93
2017-10-01T16:38:48.522Z,5.53
2017-10-01T16:41:15.933Z,6.40
2017-10-01T16:43:43.882Z,7.37
2017-10-01T16:46:12.830Z,7.17
2017-10-01T16:48:40.246Z,8.90
2017-10-01T16:51:07.654Z,7.90
2017-10-01T16:53:35.107Z,7.33
2017-10-01T16:56:02.570Z,9.27
2017-10-01T16:58:30.026Z,8.03
2017-10-01T17:00:57.473Z,6.30
2017-10-01T17:03:24.935Z,6.03
2017-10-01T17:05:52.362Z,8.40
2017-10-01T17:08:20.566Z,7.50
2017-10-01T17:10:48.014Z,9.27
2017-10-01T17:13:15.500Z,6.17
2017-10-01T17:15:42.936Z,8.43
2017-10-01T17:18:10.358Z,6.83
2017-10-01T17:20:38.530Z,6.23
2017-10-01T17:23:06.710Z,7.00
2017-10-01T17:25:34.905Z,8.47
2017-10-01T17:28:02.385Z,7.87
2017-10-01T17:30:29.819Z,8.97
2017-10-01T17:32:57.226Z,8.17
2017-10-01T17:35:25.445Z,7.40
2017-10-01T17:37:52.858Z,9.23
2017-10-01T17:40:20.275Z,11.30
2017-10-01T17:42:47.698Z,12.10
2017-10-01T17:45:15.884Z,10.63
2017-10-01T17:47:43.472Z,9.83
2017-10-01T17:50:13.886Z,11.23
2017-10-01T17:52:41.446Z,11.50
2017-10-01T17:55:08.908Z,11.53
2017-10-01T17:57:36.364Z,13.30
2017-10-01T18:00:03.778Z,13.43
2017-10-01T18:02:31.981Z,14.20
2017-10-01T18:04:59.402Z,10.57
2017-10-01T18:07:26.809Z,8.57
2017-10-01T18:09:54.278Z,10.10
2017-10-01T18:12:21.679Z,10.50
2017-10-01T18:14:49.909Z,8.83
2017-10-01T18:17:17.352Z,10.73
2017-10-01T18:19:44.809Z,9.37
2017-10-01T18:22:12.222Z,8.53
2017-10-01T18:24:40.414Z,11.87
2017-10-01T18:27:07.825Z,9.50
2017-10-01T18:29:36.010Z,8.50
2017-10-01T18:32:03.426Z,11.50
2017-10-01T18:34:30.853Z,15.10
2017-10-01T18:36:58.272Z,10.30
2017-10-01T18:39:28.197Z,14.53
2017-10-01T18:41:55.610Z,9.03
2017-10-01T18:44:23.037Z,11.30
2017-10-01T18:46:50.453Z,10.30
2017-10-01T18:49:19.377Z,8.30
2017-10-01T18:51:47.578Z,8.70
2017-10-01T18:54:15.000Z,9.40
2017-10-01T18:56:43.216Z,13.43
2017-10-01T18:59:10.620Z,12.23
2017-10-01T19:01:38.030Z,11.93
2017-10-01T19:04:05.444Z,9.37
2017-10-01T19:06:33.629Z,9.47
2017-10-01T19:09:01.931Z,12.23
2017-10-01T19:11:29.392Z,12.87
2017-10-01T19:13:56.857Z,9.60
2017-10-01T19:16:24.305Z,10.87
2017-10-01T19:18:51.726Z,16.60
2017-10-01T19:21:19.910Z,11.30
2017-10-01T19:23:47.394Z,13.23
2017-10-01T19:26:14.810Z,9.77
2017-10-01T19:28:43.003Z,10.00
2017-10-01T19:31:10.420Z,10.87
2017-10-01T19:33:38.601Z,10.77
2017-10-01T19:36:06.019Z,11.60
2017-10-01T19:38:33.467Z,11.17
2017-10-01T19:41:00.923Z,9.67
2017-10-01T19:43:28.350Z,9.90
2017-10-01T19:45:56.521Z,9.60
2017-10-01T19:48:24.717Z,8.97
2017-10-01T19:50:52.174Z,9.03
2017-10-01T19:53:19.595Z,11.23
2017-10-01T19:55:46.997Z,11.50
2017-10-01T19:58:14.421Z,14.47
2017-10-01T20:00:42.622Z,11.10
2017-10-01T20:03:10.809Z,8.70
2017-10-01T20:05:38.260Z,8.40
2017-10-01T20:08:05.714Z,11.63
2017-10-01T20:10:33.121Z,11.80
2017-10-01T20:13:01.307Z,9.50
2017-10-01T20:15:29.503Z,9.37
2017-10-01T20:17:56.900Z,9.80
2017-10-01T20:20:24.330Z,10.20
2017-10-01T20:22:51.739Z,11.80
2017-10-01T20:25:19.233Z,7.00
2017-10-01T20:27:46.643Z,9.53
2017-10-01T20:30:14.060Z,7.70
2017-10-01T20:32:41.469Z,9.23
2017-10-01T20:35:09.653Z,7.50
2017-10-01T20:37:37.849Z,11.30
2017-10-01T20:40:05.302Z,6.87
2017-10-01T20:42:32.762Z,8.03
2017-10-01T20:45:00.231Z,7.13
2017-10-01T20:47:27.634Z,6.83
2017-10-01T20:49:55.140Z,5.70
2017-10-01T20:52:22.593Z,7.40
2017-10-01T20:54:50.009Z,8.10
2017-10-01T20:57:18.185Z,6.20
2017-10-01T20:59:46.397Z,6.30
2017-10-01T21:02:13.809Z,6.20
2017-10-01T21:04:41.316Z,7.83
2017-10-01T21:07:08.726Z,6.90
2017-10-01T21:09:36.693Z,10.77
2017-10-01T21:12:04.199Z,7.50
2017-10-01T21:14:32.019Z,9.07
2017-10-01T21:16:59.424Z,5.90
2017-10-01T21:19:26.838Z,5.60
2017-10-01T21:21:55.051Z,6.13
2017-10-01T21:24:22.507Z,4.50
2017-10-01T21:26:49.923Z,7.93
2017-10-01T21:29:18.107Z,4.20
2017-10-01T21:31:46.285Z,6.00
2017-10-01T21:34:14.476Z,7.00
2017-10-01T21:36:41.891Z,6.50
2017-10-01T21:39:09.305Z,6.33
2017-10-01T21:41:36.711Z,4.73
2017-10-01T21:44:04.886Z,3.53
2017-10-01T21:46:33.075Z,7.10
2017-10-01T21:49:01.254Z,3.10
2017-10-01T21:51:28.745Z,5.03
2017-10-01T21:53:56.148Z,4.53
2017-10-01T21:56:24.364Z,4.30
2017-10-01T21:58:51.770Z,5.43
2017-10-01T22:01:19.282Z,3.43
2017-10-01T22:03:46.682Z,5.50
2017-10-01T22:06:14.191Z,5.27
2017-10-01T22:08:41.604Z,4.43
2017-10-01T22:11:09.016Z,3.43
2017-10-01T22:13:36.429Z,5.67
2017-10-01T22:16:04.618Z,4.90
2017-10-01T22:18:32.085Z,7.80
2017-10-01T22:20:59.510Z,6.37
2017-10-01T22:23:27.694Z,9.30
2017-10-01T22:25:55.874Z,6.33
2017-10-01T22:28:23.285Z,3.87
2017-10-01T22:30:52.202Z,4.83
2017-10-01T22:33:20.377Z,3.97
2017-10-01T22:35:48.560Z,3.23
2017-10-01T22:38:16.754Z,3.20
2017-10-01T22:40:44.152Z,3.70
2017-10-01T22:43:12.336Z,4.30
2017-10-01T22:45:39.754Z,3.57
2017-10-01T22:48:07.165Z,3.33
2017-10-01T22:50:35.373Z,6.67
2017-10-01T22:53:02.782Z,3.87
2017-10-01T22:55:30.199Z,5.40
2017-10-01T22:57:57.647Z,4.70
2017-10-01T23:00:25.056Z,6.83
2017-10-01T23:02:52.466Z,3.53
2017-10-01T23:05:19.916Z,7.60
2017-10-01T23:07:47.328Z,3.40
2017-10-01T23:10:14.746Z,3.97
2017-10-01T23:12:42.158Z,4.30
2017-10-01T23:15:10.350Z,5.27
2017-10-01T23:17:37.814Z,4.97
2017-10-01T23:20:05.272Z,4.70
2017-10-01T23:22:32.734Z,4.03
2017-10-01T23:25:00.198Z,5.40
2017-10-01T23:27:27.610Z,3.57
2017-10-01T23:29:55.806Z,5.20
2017-10-01T23:32:23.222Z,3.30
2017-10-01T23:34:50.633Z,3.40
2017-10-01T23:37:18.050Z,3.60
2017-10-01T23:39:46.262Z,3.90
2017-10-01T23:42:13.766Z,4.27
2017-10-01T23:44:41.185Z,4.40
2017-10-01T23:47:08.626Z,5.17
2017-10-01T23:49:36.046Z,3.87
2017-10-01T23:52:04.239Z,4.30
2017-10-01T23:54:31.654Z,4.80
2017-10-01T23:56:59.843Z,3.50
2017-10-01T23:59:27.251Z,4.53
